sensor_id;sensor_type;location;lat;lon;timestamp;P1;durP1;ratioP1;P2;durP2;ratioP2
53421;SDS011;39319;52.944;5.928;2022-10-16T00:01:38;10.52;;;2.42;;
53421;SDS011;39319;52.944;5.928;2022-10-16T00:04:04;9.60;;;2.22;;
53421;SDS011;39319;52.944;5.928;2022-10-16T00:06:30;10.23;;;1.90;;
53421;SDS011;39319;52.944;5.928;2022-10-16T00:08:57;9.93;;;1.90;;
53421;SDS011;39319;52.944;5.928;2022-10-16T00:11:27;9.90;;;2.08;;
53421;SDS011;39319;52.944;5.928;2022-10-16T00:13:56;9.38;;;1.80;;
53421;SDS011;39319;52.944;5.928;2022-10-16T00:16:23;9.07;;;1.70;;
53421;SDS011;39319;52.944;5.928;2022-10-16T00:18:48;8.77;;;1.90;;
53421;SDS011;39319;52.944;5.928;2022-10-16T00:21:15;8.95;;;2.10;;
53421;SDS011;39319;52.944;5.928;2022-10-16T00:23:42;8.60;;;2.00;;
53421;SDS011;39319;52.944;5.928;2022-10-16T00:26:11;9.80;;;1.77;;
53421;SDS011;39319;52.944;5.928;2022-10-16T00:28:39;9.68;;;2.17;;
53421;SDS011;39319;52.944;5.928;2022-10-16T00:31:05;10.95;;;2.15;;
53421;SDS011;39319;52.944;5.928;2022-10-16T00:33:33;11.35;;;2.10;;
53421;SDS011;39319;52.944;5.928;2022-10-16T00:36:00;6.85;;;1.70;;
53421;SDS011;39319;52.944;5.928;2022-10-16T00:38:27;8.73;;;1.83;;
53421;SDS011;39319;52.944;5.928;2022-10-16T00:40:53;8.90;;;1.95;;
53421;SDS011;39319;52.944;5.928;2022-10-16T00:46:41;10.45;;;2.00;;
53421;SDS011;39319;52.944;5.928;2022-10-16T00:49:05;7.95;;;1.67;;
53421;SDS011;39319;52.944;5.928;2022-10-16T00:51:36;9.18;;;1.80;;
53421;SDS011;39319;52.944;5.928;2022-10-16T00:54:09;8.23;;;1.60;;
53421;SDS011;39319;52.944;5.928;2022-10-16T00:56:38;8.43;;;1.88;;
53421;SDS011;39319;52.944;5.928;2022-10-16T00:59:05;8.52;;;1.95;;
53421;SDS011;39319;52.944;5.928;2022-10-16T01:01:39;7.30;;;1.90;;
53421;SDS011;39319;52.944;5.928;2022-10-16T01:04:05;8.05;;;2.15;;
53421;SDS011;39319;52.944;5.928;2022-10-16T01:06:46;9.20;;;2.00;;
53421;SDS011;39319;52.944;5.928;2022-10-16T01:17:15;10.38;;;2.72;;
53421;SDS011;39319;52.944;5.928;2022-10-16T01:22:42;8.35;;;2.22;;
53421;SDS011;39319;52.944;5.928;2022-10-16T01:28:21;8.98;;;2.75;;
53421;SDS011;39319;52.944;5.928;2022-10-16T01:30:53;8.02;;;2.25;;
53421;SDS011;39319;52.944;5.928;2022-10-16T01:33:35;9.35;;;2.22;;
53421;SDS011;39319;52.944;5.928;2022-10-16T01:36:11;7.63;;;2.22;;
53421;SDS011;39319;52.944;5.928;2022-10-16T01:38:41;9.70;;;2.28;;
53421;SDS011;39319;52.944;5.928;2022-10-16T01:41:30;8.90;;;2.22;;
53421;SDS011;39319;52.944;5.928;2022-10-16T01:44:07;11.02;;;2.50;;
53421;SDS011;39319;52.944;5.928;2022-10-16T01:46:55;8.07;;;2.33;;
53421;SDS011;39319;52.944;5.928;2022-10-16T01:49:21;10.65;;;2.80;;
53421;SDS011;39319;52.944;5.928;2022-10-16T01:51:51;9.57;;;2.72;;
53421;SDS011;39319;52.944;5.928;2022-10-16T01:54:20;9.43;;;2.60;;
53421;SDS011;39319;52.944;5.928;2022-10-16T01:56:50;11.25;;;2.60;;
53421;SDS011;39319;52.944;5.928;2022-10-16T01:59:18;8.93;;;2.80;;
53421;SDS011;39319;52.944;5.928;2022-10-16T02:01:50;9.70;;;2.40;;
53421;SDS011;39319;52.944;5.928;2022-10-16T02:07:17;13.25;;;2.67;;
53421;SDS011;39319;52.944;5.928;2022-10-16T02:09:43;10.70;;;2.70;;
53421;SDS011;39319;52.944;5.928;2022-10-16T02:12:31;8.35;;;2.28;;
53421;SDS011;39319;52.944;5.928;2022-10-16T02:15:00;8.43;;;2.55;;
53421;SDS011;39319;52.944;5.928;2022-10-16T02:17:26;8.80;;;2.50;;
53421;SDS011;39319;52.944;5.928;2022-10-16T02:19:55;10.13;;;2.65;;
53421;SDS011;39319;52.944;5.928;2022-10-16T02:27:38;8.00;;;2.40;;
53421;SDS011;39319;52.944;5.928;2022-10-16T02:30:07;8.25;;;2.70;;
53421;SDS011;39319;52.944;5.928;2022-10-16T02:32:33;9.07;;;2.60;;
53421;SDS011;39319;52.944;5.928;2022-10-16T02:35:02;9.65;;;2.50;;
53421;SDS011;39319;52.944;5.928;2022-10-16T02:37:29;11.30;;;2.42;;
53421;SDS011;39319;52.944;5.928;2022-10-16T02:39:56;7.40;;;2.30;;
53421;SDS011;39319;52.944;5.928;2022-10-16T02:42:27;8.52;;;2.30;;
53421;SDS011;39319;52.944;5.928;2022-10-16T02:44:54;10.70;;;2.90;;
53421;SDS011;39319;52.944;5.928;2022-10-16T02:47:21;7.70;;;2.20;;
53421;SDS011;39319;52.944;5.928;2022-10-16T02:49:46;11.48;;;2.65;;
53421;SDS011;39319;52.944;5.928;2022-10-16T02:52:15;7.38;;;2.38;;
53421;SDS011;39319;52.944;5.928;2022-10-16T02:54:41;7.70;;;2.38;;
53421;SDS011;39319;52.944;5.928;2022-10-16T02:57:07;7.10;;;2.03;;
53421;SDS011;39319;52.944;5.928;2022-10-16T02:59:33;8.70;;;2.70;;
53421;SDS011;39319;52.944;5.928;2022-10-16T03:01:59;10.40;;;2.40;;
53421;SDS011;39319;52.944;5.928;2022-10-16T03:04:25;8.98;;;2.30;;
53421;SDS011;39319;52.944;5.928;2022-10-16T03:06:51;8.27;;;2.40;;
53421;SDS011;39319;52.944;5.928;2022-10-16T03:09:16;6.57;;;2.00;;
53421;SDS011;39319;52.944;5.928;2022-10-16T03:11:42;7.82;;;2.20;;
53421;SDS011;39319;52.944;5.928;2022-10-16T03:14:08;8.63;;;1.92;;
53421;SDS011;39319;52.944;5.928;2022-10-16T03:16:33;7.85;;;1.95;;
53421;SDS011;39319;52.944;5.928;2022-10-16T03:19:00;6.82;;;2.40;;
53421;SDS011;39319;52.944;5.928;2022-10-16T03:21:25;9.52;;;2.28;;
53421;SDS011;39319;52.944;5.928;2022-10-16T03:23:51;6.53;;;1.90;;
53421;SDS011;39319;52.944;5.928;2022-10-16T03:26:17;6.90;;;2.10;;
53421;SDS011;39319;52.944;5.928;2022-10-16T03:28:42;7.47;;;2.20;;
53421;SDS011;39319;52.944;5.928;2022-10-16T03:31:08;9.00;;;2.33;;
53421;SDS011;39319;52.944;5.928;2022-10-16T03:33:34;8.75;;;2.30;;
53421;SDS011;39319;52.944;5.928;2022-10-16T03:36:00;7.18;;;2.13;;
53421;SDS011;39319;52.944;5.928;2022-10-16T03:38:27;6.07;;;2.15;;
53421;SDS011;39319;52.944;5.928;2022-10-16T03:40:52;7.53;;;2.30;;
53421;SDS011;39319;52.944;5.928;2022-10-16T03:43:18;7.97;;;2.10;;
53421;SDS011;39319;52.944;5.928;2022-10-16T03:45:45;6.93;;;2.20;;
53421;SDS011;39319;52.944;5.928;2022-10-16T03:48:11;9.32;;;2.60;;
53421;SDS011;39319;52.944;5.928;2022-10-16T03:50:37;7.00;;;2.10;;
53421;SDS011;39319;52.944;5.928;2022-10-16T03:53:03;8.38;;;2.30;;
53421;SDS011;39319;52.944;5.928;2022-10-16T03:55:29;7.55;;;1.85;;
53421;SDS011;39319;52.944;5.928;2022-10-16T03:57:55;6.82;;;2.05;;
53421;SDS011;39319;52.944;5.928;2022-10-16T04:00:20;8.85;;;2.30;;
53421;SDS011;39319;52.944;5.928;2022-10-16T04:02:46;6.80;;;2.05;;
53421;SDS011;39319;52.944;5.928;2022-10-16T04:05:13;8.85;;;2.15;;
53421;SDS011;39319;52.944;5.928;2022-10-16T04:07:39;7.70;;;2.17;;
53421;SDS011;39319;52.944;5.928;2022-10-16T04:10:05;7.67;;;2.27;;
53421;SDS011;39319;52.944;5.928;2022-10-16T04:12:31;9.98;;;2.35;;
53421;SDS011;39319;52.944;5.928;2022-10-16T04:14:57;6.13;;;1.90;;
53421;SDS011;39319;52.944;5.928;2022-10-16T04:17:23;8.00;;;2.00;;
53421;SDS011;39319;52.944;5.928;2022-10-16T04:19:49;8.57;;;2.50;;
53421;SDS011;39319;52.944;5.928;2022-10-16T04:22:15;8.70;;;2.50;;
53421;SDS011;39319;52.944;5.928;2022-10-16T04:24:40;9.77;;;2.60;;
53421;SDS011;39319;52.944;5.928;2022-10-16T04:27:09;9.23;;;2.42;;
53421;SDS011;39319;52.944;5.928;2022-10-16T04:29:35;7.95;;;2.25;;
53421;SDS011;39319;52.944;5.928;2022-10-16T04:32:01;7.80;;;2.40;;
53421;SDS011;39319;52.944;5.928;2022-10-16T04:34:26;7.80;;;2.67;;
53421;SDS011;39319;52.944;5.928;2022-10-16T04:36:52;6.63;;;2.20;;
53421;SDS011;39319;52.944;5.928;2022-10-16T04:39:21;6.93;;;2.50;;
53421;SDS011;39319;52.944;5.928;2022-10-16T04:41:47;6.80;;;2.40;;
53421;SDS011;39319;52.944;5.928;2022-10-16T04:44:13;7.80;;;2.57;;
53421;SDS011;39319;52.944;5.928;2022-10-16T04:46:39;8.95;;;2.95;;
53421;SDS011;39319;52.944;5.928;2022-10-16T04:49:05;8.02;;;2.60;;
53421;SDS011;39319;52.944;5.928;2022-10-16T04:51:31;8.20;;;3.00;;
53421;SDS011;39319;52.944;5.928;2022-10-16T04:53:57;8.15;;;2.55;;
53421;SDS011;39319;52.944;5.928;2022-10-16T04:56:22;8.23;;;2.70;;
53421;SDS011;39319;52.944;5.928;2022-10-16T04:58:49;9.32;;;2.72;;
53421;SDS011;39319;52.944;5.928;2022-10-16T05:01:15;6.70;;;2.75;;
53421;SDS011;39319;52.944;5.928;2022-10-16T05:03:42;6.97;;;2.70;;
53421;SDS011;39319;52.944;5.928;2022-10-16T05:06:08;10.07;;;3.00;;
53421;SDS011;39319;52.944;5.928;2022-10-16T05:08:33;9.77;;;2.80;;
53421;SDS011;39319;52.944;5.928;2022-10-16T05:10:59;7.82;;;2.97;;
53421;SDS011;39319;52.944;5.928;2022-10-16T05:13:26;11.77;;;3.53;;
53421;SDS011;39319;52.944;5.928;2022-10-16T05:15:52;9.48;;;3.50;;
53421;SDS011;39319;52.944;5.928;2022-10-16T05:18:18;7.30;;;2.80;;
53421;SDS011;39319;52.944;5.928;2022-10-16T05:20:44;8.77;;;3.40;;
53421;SDS011;39319;52.944;5.928;2022-10-16T05:23:11;10.45;;;3.25;;
53421;SDS011;39319;52.944;5.928;2022-10-16T05:25:36;8.95;;;3.42;;
53421;SDS011;39319;52.944;5.928;2022-10-16T05:28:02;9.40;;;3.40;;
53421;SDS011;39319;52.944;5.928;2022-10-16T05:30:28;8.70;;;3.42;;
53421;SDS011;39319;52.944;5.928;2022-10-16T05:32:54;9.45;;;3.28;;
53421;SDS011;39319;52.944;5.928;2022-10-16T05:35:20;9.70;;;3.53;;
53421;SDS011;39319;52.944;5.928;2022-10-16T05:37:46;9.43;;;3.40;;
53421;SDS011;39319;52.944;5.928;2022-10-16T05:40:12;9.43;;;3.67;;
53421;SDS011;39319;52.944;5.928;2022-10-16T05:42:39;9.43;;;3.45;;
53421;SDS011;39319;52.944;5.928;2022-10-16T05:45:06;9.35;;;3.55;;
53421;SDS011;39319;52.944;5.928;2022-10-16T05:47:34;9.18;;;3.42;;
53421;SDS011;39319;52.944;5.928;2022-10-16T05:49:59;10.43;;;3.17;;
53421;SDS011;39319;52.944;5.928;2022-10-16T05:52:26;9.43;;;3.40;;
53421;SDS011;39319;52.944;5.928;2022-10-16T05:54:52;8.93;;;3.03;;
53421;SDS011;39319;52.944;5.928;2022-10-16T05:57:18;8.73;;;2.90;;
53421;SDS011;39319;52.944;5.928;2022-10-16T05:59:43;8.97;;;2.93;;
53421;SDS011;39319;52.944;5.928;2022-10-16T06:02:13;9.63;;;3.08;;
53421;SDS011;39319;52.944;5.928;2022-10-16T06:04:39;8.65;;;2.80;;
53421;SDS011;39319;52.944;5.928;2022-10-16T06:07:06;9.85;;;3.33;;
53421;SDS011;39319;52.944;5.928;2022-10-16T06:09:32;9.52;;;2.95;;
53421;SDS011;39319;52.944;5.928;2022-10-16T06:11:58;9.20;;;3.13;;
53421;SDS011;39319;52.944;5.928;2022-10-16T06:14:24;9.18;;;2.88;;
53421;SDS011;39319;52.944;5.928;2022-10-16T06:16:52;10.23;;;3.17;;
53421;SDS011;39319;52.944;5.928;2022-10-16T06:19:18;8.00;;;3.13;;
53421;SDS011;39319;52.944;5.928;2022-10-16T06:21:44;10.73;;;3.47;;
53421;SDS011;39319;52.944;5.928;2022-10-16T06:24:10;7.35;;;3.10;;
53421;SDS011;39319;52.944;5.928;2022-10-16T06:26:35;6.87;;;3.07;;
53421;SDS011;39319;52.944;5.928;2022-10-16T06:29:02;8.70;;;3.22;;
53421;SDS011;39319;52.944;5.928;2022-10-16T06:31:28;10.67;;;3.20;;
53421;SDS011;39319;52.944;5.928;2022-10-16T06:33:56;9.18;;;3.00;;
53421;SDS011;39319;52.944;5.928;2022-10-16T06:36:23;8.85;;;3.15;;
53421;SDS011;39319;52.944;5.928;2022-10-16T06:38:50;10.77;;;3.45;;
53421;SDS011;39319;52.944;5.928;2022-10-16T06:41:17;8.43;;;3.08;;
53421;SDS011;39319;52.944;5.928;2022-10-16T06:43:48;7.07;;;3.10;;
53421;SDS011;39319;52.944;5.928;2022-10-16T06:46:14;10.68;;;3.42;;
53421;SDS011;39319;52.944;5.928;2022-10-16T06:48:42;9.02;;;3.20;;
53421;SDS011;39319;52.944;5.928;2022-10-16T06:51:09;8.82;;;3.47;;
53421;SDS011;39319;52.944;5.928;2022-10-16T06:53:44;11.07;;;3.30;;
53421;SDS011;39319;52.944;5.928;2022-10-16T06:56:24;9.18;;;3.50;;
53421;SDS011;39319;52.944;5.928;2022-10-16T06:58:51;8.43;;;3.20;;
53421;SDS011;39319;52.944;5.928;2022-10-16T07:01:18;6.88;;;2.90;;
53421;SDS011;39319;52.944;5.928;2022-10-16T07:03:45;9.45;;;3.45;;
53421;SDS011;39319;52.944;5.928;2022-10-16T07:06:13;9.57;;;3.25;;
53421;SDS011;39319;52.944;5.928;2022-10-16T07:08:41;9.52;;;2.85;;
53421;SDS011;39319;52.944;5.928;2022-10-16T07:11:09;8.95;;;3.00;;
53421;SDS011;39319;52.944;5.928;2022-10-16T07:13:36;8.13;;;3.40;;
53421;SDS011;39319;52.944;5.928;2022-10-16T07:16:11;9.05;;;3.22;;
53421;SDS011;39319;52.944;5.928;2022-10-16T07:18:41;8.85;;;2.72;;
53421;SDS011;39319;52.944;5.928;2022-10-16T07:21:14;9.38;;;2.88;;
53421;SDS011;39319;52.944;5.928;2022-10-16T07:23:42;9.00;;;2.90;;
53421;SDS011;39319;52.944;5.928;2022-10-16T07:26:08;9.13;;;3.00;;
53421;SDS011;39319;52.944;5.928;2022-10-16T07:28:35;8.65;;;2.80;;
53421;SDS011;39319;52.944;5.928;2022-10-16T07:31:05;10.38;;;3.00;;
53421;SDS011;39319;52.944;5.928;2022-10-16T07:33:32;9.20;;;3.10;;
53421;SDS011;39319;52.944;5.928;2022-10-16T07:35:58;10.13;;;3.22;;
53421;SDS011;39319;52.944;5.928;2022-10-16T07:38:25;10.07;;;3.10;;
53421;SDS011;39319;52.944;5.928;2022-10-16T07:40:58;9.63;;;3.23;;
53421;SDS011;39319;52.944;5.928;2022-10-16T07:43:31;9.43;;;3.35;;
53421;SDS011;39319;52.944;5.928;2022-10-16T07:45:57;9.63;;;2.83;;
53421;SDS011;39319;52.944;5.928;2022-10-16T07:48:23;10.07;;;2.73;;
53421;SDS011;39319;52.944;5.928;2022-10-16T07:50:51;11.80;;;3.22;;
53421;SDS011;39319;52.944;5.928;2022-10-16T07:53:17;8.37;;;2.70;;
53421;SDS011;39319;52.944;5.928;2022-10-16T07:55:43;10.83;;;2.30;;
53421;SDS011;39319;52.944;5.928;2022-10-16T07:58:09;10.45;;;1.80;;
53421;SDS011;39319;52.944;5.928;2022-10-16T08:00:35;7.35;;;1.83;;
53421;SDS011;39319;52.944;5.928;2022-10-16T08:03:02;10.90;;;2.28;;
53421;SDS011;39319;52.944;5.928;2022-10-16T08:05:28;7.22;;;1.80;;
53421;SDS011;39319;52.944;5.928;2022-10-16T08:07:55;9.55;;;1.90;;
53421;SDS011;39319;52.944;5.928;2022-10-16T08:10:21;8.30;;;1.92;;
53421;SDS011;39319;52.944;5.928;2022-10-16T08:12:48;7.68;;;1.73;;
53421;SDS011;39319;52.944;5.928;2022-10-16T08:15:14;7.83;;;1.70;;
53421;SDS011;39319;52.944;5.928;2022-10-16T08:17:40;7.75;;;2.22;;
53421;SDS011;39319;52.944;5.928;2022-10-16T08:20:06;13.00;;;2.20;;
53421;SDS011;39319;52.944;5.928;2022-10-16T08:22:34;9.73;;;2.10;;
53421;SDS011;39319;52.944;5.928;2022-10-16T08:25:01;8.85;;;1.98;;
53421;SDS011;39319;52.944;5.928;2022-10-16T08:27:33;6.80;;;1.65;;
53421;SDS011;39319;52.944;5.928;2022-10-16T08:29:58;8.70;;;2.10;;
53421;SDS011;39319;52.944;5.928;2022-10-16T08:32:24;10.98;;;2.30;;
53421;SDS011;39319;52.944;5.928;2022-10-16T08:34:50;10.15;;;2.55;;
53421;SDS011;39319;52.944;5.928;2022-10-16T08:37:19;10.35;;;2.35;;
53421;SDS011;39319;52.944;5.928;2022-10-16T08:39:45;8.65;;;1.95;;
53421;SDS011;39319;52.944;5.928;2022-10-16T08:42:14;11.05;;;2.40;;
53421;SDS011;39319;52.944;5.928;2022-10-16T08:44:54;10.68;;;2.10;;
53421;SDS011;39319;52.944;5.928;2022-10-16T08:47:49;10.98;;;2.33;;
53421;SDS011;39319;52.944;5.928;2022-10-16T08:50:25;12.00;;;2.38;;
53421;SDS011;39319;52.944;5.928;2022-10-16T08:52:53;10.25;;;2.05;;
53421;SDS011;39319;52.944;5.928;2022-10-16T08:55:33;11.43;;;2.20;;
53421;SDS011;39319;52.944;5.928;2022-10-16T08:58:13;11.70;;;2.50;;
53421;SDS011;39319;52.944;5.928;2022-10-16T09:00:41;12.35;;;2.35;;
53421;SDS011;39319;52.944;5.928;2022-10-16T09:03:17;11.38;;;2.38;;
53421;SDS011;39319;52.944;5.928;2022-10-16T09:08:27;14.07;;;2.53;;
53421;SDS011;39319;52.944;5.928;2022-10-16T09:19:03;14.55;;;2.85;;
53421;SDS011;39319;52.944;5.928;2022-10-16T09:21:41;14.07;;;2.80;;
53421;SDS011;39319;52.944;5.928;2022-10-16T09:26:43;15.35;;;2.70;;
53421;SDS011;39319;52.944;5.928;2022-10-16T09:29:11;12.43;;;2.33;;
53421;SDS011;39319;52.944;5.928;2022-10-16T09:31:38;13.70;;;2.78;;
53421;SDS011;39319;52.944;5.928;2022-10-16T09:34:04;14.10;;;3.05;;
53421;SDS011;39319;52.944;5.928;2022-10-16T09:36:36;13.52;;;2.38;;
53421;SDS011;39319;52.944;5.928;2022-10-16T09:39:08;13.77;;;2.50;;
53421;SDS011;39319;52.944;5.928;2022-10-16T09:41:37;13.60;;;2.85;;
53421;SDS011;39319;52.944;5.928;2022-10-16T09:44:19;14.75;;;2.47;;
53421;SDS011;39319;52.944;5.928;2022-10-16T09:47:00;14.98;;;2.80;;
53421;SDS011;39319;52.944;5.928;2022-10-16T09:49:29;13.93;;;2.60;;
53421;SDS011;39319;52.944;5.928;2022-10-16T09:52:05;14.98;;;2.80;;
53421;SDS011;39319;52.944;5.928;2022-10-16T09:54:37;17.23;;;3.20;;
53421;SDS011;39319;52.944;5.928;2022-10-16T09:57:14;10.68;;;2.30;;
53421;SDS011;39319;52.944;5.928;2022-10-16T09:59:50;16.33;;;3.07;;
53421;SDS011;39319;52.944;5.928;2022-10-16T10:02:28;13.73;;;2.23;;
53421;SDS011;39319;52.944;5.928;2022-10-16T10:04:59;14.17;;;2.70;;
53421;SDS011;39319;52.944;5.928;2022-10-16T10:07:27;12.17;;;2.30;;
53421;SDS011;39319;52.944;5.928;2022-10-16T10:09:59;16.03;;;2.90;;
53421;SDS011;39319;52.944;5.928;2022-10-16T10:12:29;15.07;;;2.97;;
53421;SDS011;39319;52.944;5.928;2022-10-16T10:15:09;12.32;;;2.35;;
53421;SDS011;39319;52.944;5.928;2022-10-16T10:17:46;15.32;;;3.17;;
53421;SDS011;39319;52.944;5.928;2022-10-16T10:23:21;15.20;;;3.40;;
53421;SDS011;39319;52.944;5.928;2022-10-16T10:31:08;13.38;;;2.75;;
53421;SDS011;39319;52.944;5.928;2022-10-16T10:36:16;12.35;;;2.78;;
53421;SDS011;39319;52.944;5.928;2022-10-16T10:39:25;13.35;;;2.65;;
53421;SDS011;39319;52.944;5.928;2022-10-16T10:47:36;17.77;;;2.70;;
53421;SDS011;39319;52.944;5.928;2022-10-16T10:50:25;19.48;;;3.20;;
53421;SDS011;39319;52.944;5.928;2022-10-16T10:56:05;14.18;;;2.78;;
53421;SDS011;39319;52.944;5.928;2022-10-16T11:06:57;14.38;;;3.22;;
53421;SDS011;39319;52.944;5.928;2022-10-16T11:09:34;12.40;;;2.97;;
53421;SDS011;39319;52.944;5.928;2022-10-16T11:14:34;15.10;;;2.87;;
53421;SDS011;39319;52.944;5.928;2022-10-16T11:17:10;15.15;;;2.80;;
53421;SDS011;39319;52.944;5.928;2022-10-16T11:22:51;13.93;;;2.73;;
53421;SDS011;39319;52.944;5.928;2022-10-16T11:25:32;14.77;;;2.92;;
53421;SDS011;39319;52.944;5.928;2022-10-16T11:28:01;18.17;;;3.80;;
53421;SDS011;39319;52.944;5.928;2022-10-16T11:30:44;15.07;;;2.92;;
53421;SDS011;39319;52.944;5.928;2022-10-16T11:41:45;14.20;;;2.83;;
53421;SDS011;39319;52.944;5.928;2022-10-16T11:49:34;11.98;;;2.90;;
53421;SDS011;39319;52.944;5.928;2022-10-16T11:52:07;12.60;;;2.60;;
53421;SDS011;39319;52.944;5.928;2022-10-16T11:55:04;14.60;;;2.88;;
53421;SDS011;39319;52.944;5.928;2022-10-16T11:58:04;15.68;;;2.85;;
53421;SDS011;39319;52.944;5.928;2022-10-16T12:00:56;14.27;;;2.85;;
53421;SDS011;39319;52.944;5.928;2022-10-16T12:09:00;13.63;;;2.70;;
53421;SDS011;39319;52.944;5.928;2022-10-16T12:16:57;11.77;;;2.53;;
53421;SDS011;39319;52.944;5.928;2022-10-16T12:19:41;13.50;;;2.83;;
53421;SDS011;39319;52.944;5.928;2022-10-16T12:22:15;13.30;;;2.30;;
53421;SDS011;39319;52.944;5.928;2022-10-16T12:24:43;13.50;;;2.45;;
53421;SDS011;39319;52.944;5.928;2022-10-16T12:29:58;17.45;;;3.28;;
53421;SDS011;39319;52.944;5.928;2022-10-16T12:32:30;17.30;;;3.30;;
53421;SDS011;39319;52.944;5.928;2022-10-16T12:34:59;14.02;;;3.33;;
53421;SDS011;39319;52.944;5.928;2022-10-16T12:37:28;13.05;;;2.33;;
53421;SDS011;39319;52.944;5.928;2022-10-16T12:39:58;15.10;;;3.25;;
53421;SDS011;39319;52.944;5.928;2022-10-16T12:42:36;15.17;;;2.73;;
53421;SDS011;39319;52.944;5.928;2022-10-16T12:45:13;14.30;;;2.72;;
53421;SDS011;39319;52.944;5.928;2022-10-16T12:47:56;13.40;;;2.63;;
53421;SDS011;39319;52.944;5.928;2022-10-16T12:50:36;12.57;;;2.75;;
53421;SDS011;39319;52.944;5.928;2022-10-16T12:53:04;15.15;;;2.67;;
53421;SDS011;39319;52.944;5.928;2022-10-16T13:01:02;12.53;;;2.87;;
53421;SDS011;39319;52.944;5.928;2022-10-16T13:03:42;13.57;;;2.60;;
53421;SDS011;39319;52.944;5.928;2022-10-16T13:12:00;13.95;;;2.40;;
53421;SDS011;39319;52.944;5.928;2022-10-16T13:15:03;14.85;;;2.97;;
53421;SDS011;39319;52.944;5.928;2022-10-16T13:20:54;17.20;;;2.70;;
53421;SDS011;39319;52.944;5.928;2022-10-16T13:29:06;13.70;;;2.90;;
53421;SDS011;39319;52.944;5.928;2022-10-16T13:31:32;10.52;;;2.45;;
53421;SDS011;39319;52.944;5.928;2022-10-16T13:33:59;11.55;;;2.42;;
53421;SDS011;39319;52.944;5.928;2022-10-16T13:36:27;12.63;;;2.50;;
53421;SDS011;39319;52.944;5.928;2022-10-16T13:38:59;14.93;;;2.80;;
53421;SDS011;39319;52.944;5.928;2022-10-16T13:41:36;12.75;;;2.58;;
53421;SDS011;39319;52.944;5.928;2022-10-16T13:44:02;14.13;;;2.55;;
53421;SDS011;39319;52.944;5.928;2022-10-16T13:46:29;16.63;;;2.87;;
53421;SDS011;39319;52.944;5.928;2022-10-16T13:49:03;13.90;;;2.88;;
53421;SDS011;39319;52.944;5.928;2022-10-16T13:51:31;13.23;;;2.63;;
53421;SDS011;39319;52.944;5.928;2022-10-16T13:53:58;15.25;;;3.08;;
53421;SDS011;39319;52.944;5.928;2022-10-16T13:56:29;14.65;;;2.83;;
53421;SDS011;39319;52.944;5.928;2022-10-16T13:59:04;13.65;;;2.58;;
53421;SDS011;39319;52.944;5.928;2022-10-16T14:01:32;12.68;;;2.70;;
53421;SDS011;39319;52.944;5.928;2022-10-16T14:04:05;18.52;;;2.65;;
53421;SDS011;39319;52.944;5.928;2022-10-16T14:06:34;14.02;;;2.70;;
53421;SDS011;39319;52.944;5.928;2022-10-16T14:09:05;12.30;;;2.53;;
53421;SDS011;39319;52.944;5.928;2022-10-16T14:11:44;17.08;;;3.08;;
53421;SDS011;39319;52.944;5.928;2022-10-16T14:14:14;13.55;;;2.75;;
53421;SDS011;39319;52.944;5.928;2022-10-16T14:16:41;17.35;;;2.80;;
53421;SDS011;39319;52.944;5.928;2022-10-16T14:19:44;15.10;;;3.13;;
53421;SDS011;39319;52.944;5.928;2022-10-16T14:22:00;14.57;;;2.30;;
53421;SDS011;39319;52.944;5.928;2022-10-16T14:24:31;12.75;;;2.75;;
53421;SDS011;39319;52.944;5.928;2022-10-16T14:26:58;13.93;;;2.87;;
53421;SDS011;39319;52.944;5.928;2022-10-16T14:29:25;15.07;;;3.25;;
53421;SDS011;39319;52.944;5.928;2022-10-16T14:31:56;13.18;;;2.55;;
53421;SDS011;39319;52.944;5.928;2022-10-16T14:34:36;13.05;;;2.53;;
53421;SDS011;39319;52.944;5.928;2022-10-16T14:39:50;15.93;;;3.08;;
53421;SDS011;39319;52.944;5.928;2022-10-16T14:42:18;15.40;;;2.90;;
53421;SDS011;39319;52.944;5.928;2022-10-16T14:44:48;14.30;;;2.83;;
53421;SDS011;39319;52.944;5.928;2022-10-16T14:47:18;15.52;;;2.80;;
53421;SDS011;39319;52.944;5.928;2022-10-16T14:49:49;12.38;;;2.90;;
53421;SDS011;39319;52.944;5.928;2022-10-16T14:52:15;15.00;;;2.70;;
53421;SDS011;39319;52.944;5.928;2022-10-16T14:54:42;13.30;;;2.40;;
53421;SDS011;39319;52.944;5.928;2022-10-16T14:57:40;15.20;;;2.50;;
53421;SDS011;39319;52.944;5.928;2022-10-16T15:00:00;14.88;;;3.00;;
53421;SDS011;39319;52.944;5.928;2022-10-16T15:02:31;14.20;;;2.95;;
53421;SDS011;39319;52.944;5.928;2022-10-16T15:05:07;16.65;;;3.10;;
53421;SDS011;39319;52.944;5.928;2022-10-16T15:07:51;16.10;;;3.00;;
53421;SDS011;39319;52.944;5.928;2022-10-16T15:10:18;15.90;;;3.10;;
53421;SDS011;39319;52.944;5.928;2022-10-16T15:12:46;14.50;;;2.75;;
53421;SDS011;39319;52.944;5.928;2022-10-16T15:15:15;18.90;;;3.10;;
53421;SDS011;39319;52.944;5.928;2022-10-16T15:17:53;17.42;;;3.45;;
53421;SDS011;39319;52.944;5.928;2022-10-16T15:20:23;13.40;;;2.40;;
53421;SDS011;39319;52.944;5.928;2022-10-16T15:22:49;16.20;;;2.67;;
53421;SDS011;39319;52.944;5.928;2022-10-16T15:25:38;14.65;;;4.18;;
53421;SDS011;39319;52.944;5.928;2022-10-16T15:28:23;18.75;;;4.30;;
53421;SDS011;39319;52.944;5.928;2022-10-16T15:30:51;21.10;;;4.38;;
53421;SDS011;39319;52.944;5.928;2022-10-16T15:33:19;15.18;;;3.33;;
53421;SDS011;39319;52.944;5.928;2022-10-16T15:35:51;14.75;;;3.30;;
53421;SDS011;39319;52.944;5.928;2022-10-16T15:38:17;15.15;;;3.45;;
53421;SDS011;39319;52.944;5.928;2022-10-16T15:40:45;15.18;;;3.13;;
53421;SDS011;39319;52.944;5.928;2022-10-16T15:43:11;14.23;;;3.25;;
53421;SDS011;39319;52.944;5.928;2022-10-16T15:45:37;17.13;;;2.83;;
53421;SDS011;39319;52.944;5.928;2022-10-16T15:48:03;15.63;;;2.83;;
53421;SDS011;39319;52.944;5.928;2022-10-16T15:50:30;12.65;;;2.50;;
53421;SDS011;39319;52.944;5.928;2022-10-16T15:52:56;14.97;;;3.37;;
53421;SDS011;39319;52.944;5.928;2022-10-16T15:55:22;15.47;;;2.97;;
53421;SDS011;39319;52.944;5.928;2022-10-16T15:57:48;18.38;;;3.58;;
53421;SDS011;39319;52.944;5.928;2022-10-16T16:00:15;15.70;;;3.33;;
53421;SDS011;39319;52.944;5.928;2022-10-16T16:02:43;15.13;;;3.20;;
53421;SDS011;39319;52.944;5.928;2022-10-16T16:05:14;15.32;;;3.47;;
53421;SDS011;39319;52.944;5.928;2022-10-16T16:07:40;26.87;;;6.30;;
53421;SDS011;39319;52.944;5.928;2022-10-16T16:10:15;15.63;;;3.50;;
53421;SDS011;39319;52.944;5.928;2022-10-16T16:12:55;16.88;;;3.58;;
53421;SDS011;39319;52.944;5.928;2022-10-16T16:15:21;19.77;;;3.10;;
53421;SDS011;39319;52.944;5.928;2022-10-16T16:17:48;17.00;;;3.35;;
53421;SDS011;39319;52.944;5.928;2022-10-16T16:20:14;14.82;;;3.05;;
53421;SDS011;39319;52.944;5.928;2022-10-16T16:22:40;14.15;;;2.85;;
53421;SDS011;39319;52.944;5.928;2022-10-16T16:25:06;15.77;;;3.40;;
53421;SDS011;39319;52.944;5.928;2022-10-16T16:27:32;15.52;;;3.28;;
53421;SDS011;39319;52.944;5.928;2022-10-16T16:29:59;13.43;;;2.70;;
53421;SDS011;39319;52.944;5.928;2022-10-16T16:32:25;14.10;;;3.05;;
53421;SDS011;39319;52.944;5.928;2022-10-16T16:34:51;14.88;;;3.33;;
53421;SDS011;39319;52.944;5.928;2022-10-16T16:37:17;17.15;;;3.80;;
53421;SDS011;39319;52.944;5.928;2022-10-16T16:39:43;12.37;;;3.67;;
53421;SDS011;39319;52.944;5.928;2022-10-16T16:42:09;17.30;;;4.50;;
53421;SDS011;39319;52.944;5.928;2022-10-16T16:44:35;14.70;;;3.97;;
53421;SDS011;39319;52.944;5.928;2022-10-16T16:47:01;15.13;;;4.53;;
53421;SDS011;39319;52.944;5.928;2022-10-16T16:49:28;16.98;;;3.60;;
53421;SDS011;39319;52.944;5.928;2022-10-16T16:51:54;13.40;;;3.80;;
53421;SDS011;39319;52.944;5.928;2022-10-16T16:54:19;15.57;;;4.00;;
53421;SDS011;39319;52.944;5.928;2022-10-16T16:56:45;17.02;;;3.58;;
53421;SDS011;39319;52.944;5.928;2022-10-16T16:59:14;14.47;;;3.63;;